Time;durP1;ratioP1;P1;durP2;ratioP2;P2;SDS_P1;SDS_P2;PMS_P1;PMS_P2;Temp;Humidity;BMP_temperature;BMP_pressure;BME280_temperature;BME280_humidity;BME280_pressure;Samples;Min_cycle;Max_cycle;Signal;HPM_P1;HPM_P2
2022/07/08 00:01:31;;;;;;;12.20;2.63;;;;;;;16.30;71.74;101894.59;5023116;28;20041;-67
2022/07/08 00:03:57;;;;;;;14.52;3.33;;;;;;;16.17;71.90;101903.31;5027892;28;20444;-66
2022/07/08 00:06:25;;;;;;;14.20;3.00;;;;;;;16.12;72.52;101900.06;5027529;28;20486;-65
2022/07/08 00:08:51;;;;;;;17.35;3.45;;;;;;;16.32;71.82;101907.75;5022425;28;20555;-65
2022/07/08 00:11:18;;;;;;;13.68;3.15;;;;;;;16.38;71.42;101900.28;5027585;28;20069;-65
2022/07/08 00:13:44;;;;;;;11.07;3.55;;;;;;;16.60;70.79;101904.38;5019089;28;20046;-65
2022/07/08 00:16:11;;;;;;;14.30;3.15;;;;;;;16.84;69.93;101900.31;5012729;28;20076;-65
2022/07/08 00:18:37;;;;;;;13.65;3.45;;;;;;;16.48;70.93;101901.47;5027764;28;20143;-65
2022/07/08 00:21:03;;;;;;;10.20;2.63;;;;;;;16.54;71.34;101911.72;5028345;28;20065;-65
2022/07/08 00:23:31;;;;;;;8.90;2.50;;;;;;;16.52;71.15;101905.66;5025375;28;20119;-65
2022/07/08 00:25:58;;;;;;;22.13;3.95;;;;;;;16.63;70.86;101906.88;5019418;28;20115;-65
2022/07/08 00:28:24;;;;;;;16.25;2.47;;;;;;;16.44;71.51;101907.06;5028234;28;20045;-65
2022/07/08 00:30:50;;;;;;;17.88;3.28;;;;;;;16.49;71.95;101913.78;5026198;28;20494;-65
2022/07/08 00:33:17;;;;;;;11.68;2.95;;;;;;;16.71;70.98;101912.53;5027022;28;20041;-65
2022/07/08 00:35:43;;;;;;;17.48;3.75;;;;;;;16.68;70.92;101908.28;5008544;28;20670;-65
2022/07/08 00:38:09;;;;;;;18.27;3.05;;;;;;;16.55;71.78;101915.22;5011845;28;20398;-65
2022/07/08 00:40:37;;;;;;;13.48;3.03;;;;;;;16.78;71.28;101909.44;5027262;28;20069;-67
2022/07/08 00:43:04;;;;;;;13.88;2.58;;;;;;;16.26;73.20;101916.88;5020512;28;20038;-67
2022/07/08 00:45:31;;;;;;;12.00;3.88;;;;;;;16.31;73.29;101920.13;5020942;28;20073;-67
2022/07/08 00:47:57;;;;;;;12.20;2.53;;;;;;;16.02;74.70;101926.19;5017063;28;20049;-67
2022/07/08 00:50:24;;;;;;;11.52;2.65;;;;;;;16.03;76.02;101923.47;5014002;28;20099;-68
2022/07/08 00:52:50;;;;;;;12.65;2.35;;;;;;;16.19;76.21;101928.75;5026249;28;20144;-68
2022/07/08 00:55:17;;;;;;;17.08;2.85;;;;;;;16.31;76.81;101937.78;5023512;28;20510;-68
2022/07/08 00:57:45;;;;;;;11.38;2.95;;;;;;;16.04;77.76;101940.19;5024284;28;20089;-68
2022/07/08 01:00:12;;;;;;;13.57;3.05;;;;;;;16.10;78.73;101944.28;5024782;28;20111;-67
2022/07/08 01:02:38;;;;;;;18.08;2.83;;;;;;;15.91;79.65;101940.03;5026671;28;20134;-68
2022/07/08 01:05:05;;;;;;;13.70;3.22;;;;;;;15.95;80.76;101948.63;5017160;28;20037;-68
2022/07/08 01:07:32;;;;;;;21.50;3.80;;;;;;;15.76;81.99;101947.94;5008690;28;20099;-68
2022/07/08 01:09:59;;;;;;;18.08;3.50;;;;;;;15.47;83.02;101955.59;5019520;28;20046;-68
2022/07/08 01:12:26;;;;;;;13.57;3.47;;;;;;;15.52;83.70;101956.22;5018361;28;20490;-68
2022/07/08 01:14:54;;;;;;;20.27;4.90;;;;;;;15.82;83.56;101958.16;5021649;28;20097;-68
2022/07/08 01:17:20;;;;;;;18.27;3.85;;;;;;;15.69;84.21;101950.06;5027028;28;20517;-70
2022/07/08 01:19:46;;;;;;;18.38;3.70;;;;;;;15.66;83.91;101960.81;5025531;28;20049;-69
2022/07/08 01:22:14;;;;;;;17.27;3.35;;;;;;;15.59;83.29;101962.91;5026679;28;20049;-69
2022/07/08 01:24:40;;;;;;;13.13;4.00;;;;;;;15.57;83.33;101954.22;5021059;28;20446;-69
2022/07/08 01:27:07;;;;;;;14.07;3.50;;;;;;;15.71;82.70;101953.47;5024667;28;20400;-69
2022/07/08 01:29:34;;;;;;;10.95;2.80;;;;;;;15.80;82.38;101960.91;5020544;28;20128;-68
2022/07/08 01:32:01;;;;;;;16.77;3.47;;;;;;;15.58;83.16;101957.72;5013856;28;20046;-68
2022/07/08 01:34:27;;;;;;;13.98;2.88;;;;;;;15.29;83.96;101964.50;5017277;28;20100;-68
2022/07/08 01:36:54;;;;;;;16.65;3.38;;;;;;;15.39;84.34;101963.06;5004898;28;20049;-69
2022/07/08 01:39:21;;;;;;;15.05;3.40;;;;;;;15.77;82.64;101965.50;5023823;28;20141;-68
2022/07/08 01:41:48;;;;;;;17.10;2.92;;;;;;;16.10;80.90;101968.09;5026959;28;20566;-68
2022/07/08 01:44:14;;;;;;;15.35;3.50;;;;;;;16.15;80.99;101958.97;5018147;28;20041;-68
2022/07/08 01:46:41;;;;;;;13.63;3.58;;;;;;;16.12;80.26;101961.78;5027715;28;20122;-68
2022/07/08 01:49:08;;;;;;;22.40;3.42;;;;;;;15.95;81.30;101959.22;5024437;28;20042;-68
2022/07/08 01:51:34;;;;;;;18.77;2.90;;;;;;;15.76;82.32;101966.44;5008909;28;20049;-68
2022/07/08 01:54:00;;;;;;;21.83;3.72;;;;;;;15.75;82.00;101962.09;5016602;28;20045;-68
2022/07/08 01:56:28;;;;;;;17.65;4.25;;;;;;;15.87;81.92;101961.44;5023976;28;20123;-68
2022/07/08 01:58:54;;;;;;;14.70;3.38;;;;;;;15.70;81.64;101961.50;5024190;28;20088;-68
2022/07/08 02:01:21;;;;;;;17.90;3.33;;;;;;;15.61;81.90;101964.63;5027121;28;20045;-68
2022/07/08 02:03:47;;;;;;;15.13;3.30;;;;;;;15.81;81.17;101961.78;5024718;28;20111;-68
2022/07/08 02:06:13;;;;;;;15.00;3.50;;;;;;;15.66;80.89;101971.38;5025552;28;20501;-68
2022/07/08 02:08:40;;;;;;;25.08;3.22;;;;;;;15.74;80.61;101963.03;5026046;28;20049;-68
2022/07/08 02:13:51;;;;;;;18.90;2.50;;;;;;;15.61;82.26;101969.91;5017666;28;20052;-67
2022/07/08 02:16:18;;;;;;;15.02;2.85;;;;;;;15.67;81.70;101961.66;5024607;28;20119;-67
2022/07/08 02:18:44;;;;;;;18.52;3.67;;;;;;;15.80;80.84;101960.06;5025416;28;20567;-67
2022/07/08 02:21:10;;;;;;;21.48;5.57;;;;;;;15.84;80.30;101964.25;5026044;28;20041;-67
2022/07/08 02:23:37;;;;;;;19.15;3.58;;;;;;;16.03;79.47;101970.25;5024489;28;20489;-67
2022/07/08 02:26:03;;;;;;;15.00;2.40;;;;;;;15.73;80.54;101974.53;5020988;28;20045;-67
2022/07/08 02:28:30;;;;;;;22.73;3.53;;;;;;;15.87;80.22;101986.09;5024644;28;20042;-67
2022/07/08 02:30:57;;;;;;;13.75;3.03;;;;;;;15.85;80.18;101980.00;5024313;28;20190;-68
2022/07/08 02:33:24;;;;;;;22.45;4.60;;;;;;;16.03;79.20;101976.41;5026185;28;20099;-68
2022/07/08 02:35:50;;;;;;;18.58;3.53;;;;;;;16.12;78.29;101985.59;5013480;28;20115;-68
2022/07/08 02:38:16;;;;;;;12.40;2.85;;;;;;;16.17;78.42;101985.34;5025220;28;20148;-68
2022/07/08 02:40:42;;;;;;;13.40;2.72;;;;;;;16.13;78.61;101986.44;5024493;28;20493;-68
2022/07/08 02:43:10;;;;;;;17.20;3.03;;;;;;;16.13;78.40;101989.97;5024267;28;20041;-67
2022/07/08 02:45:37;;;;;;;17.17;2.88;;;;;;;15.96;79.33;101995.31;5023659;28;20057;-67
2022/07/08 02:48:05;;;;;;;17.23;3.28;;;;;;;15.94;79.53;101997.19;5025804;28;20132;-67
2022/07/08 02:50:31;;;;;;;12.95;3.08;;;;;;;15.93;80.02;102000.75;5023563;28;20099;-67
2022/07/08 02:52:58;;;;;;;14.90;2.70;;;;;;;15.81;79.12;101999.66;5025167;28;20041;-67
2022/07/08 02:55:24;;;;;;;15.45;2.80;;;;;;;15.91;79.26;102005.28;5019486;28;20077;-67
2022/07/08 02:57:51;;;;;;;14.48;3.50;;;;;;;16.11;77.72;102002.44;5024608;28;20076;-67
2022/07/08 03:00:18;;;;;;;14.25;2.97;;;;;;;15.97;78.27;102007.59;5023286;28;20049;-67
2022/07/08 03:02:44;;;;;;;15.82;3.22;;;;;;;16.03;77.98;102002.00;5025605;28;20091;-67
2022/07/08 03:05:12;;;;;;;13.98;3.22;;;;;;;15.63;79.65;102003.25;5024856;28;20041;-67
2022/07/08 03:07:38;;;;;;;15.77;2.80;;;;;;;15.64;79.25;102004.97;5024630;28;20583;-68
2022/07/08 03:10:05;;;;;;;17.45;2.95;;;;;;;15.70;78.91;102004.66;5024989;28;20050;-67
2022/07/08 03:12:31;;;;;;;12.07;2.55;;;;;;;15.79;79.21;102013.88;5015022;28;20095;-67
2022/07/08 03:14:58;;;;;;;9.80;2.65;;;;;;;15.67;79.54;102015.38;5012000;28;20682;-67
2022/07/08 03:17:24;;;;;;;11.80;2.60;;;;;;;15.74;78.74;102018.56;5006007;28;20050;-67
2022/07/08 03:19:51;;;;;;;10.65;2.30;;;;;;;15.62;78.43;102016.56;5005819;28;20046;-68
2022/07/08 03:22:18;;;;;;;13.20;2.60;;;;;;;15.66;78.64;102018.13;5013739;28;20050;-68
2022/07/08 03:24:45;;;;;;;13.70;2.63;;;;;;;16.15;76.74;102016.34;5016345;28;20570;-68
2022/07/08 03:27:11;;;;;;;11.20;2.63;;;;;;;16.03;76.77;102018.72;5024272;28;20073;-69
2022/07/08 03:29:37;;;;;;;12.45;2.58;;;;;;;15.65;77.67;102026.97;5024603;28;20052;-68
2022/07/08 03:32:04;;;;;;;11.18;2.90;;;;;;;15.92;76.78;102025.53;5024355;28;20107;-68
2022/07/08 03:34:30;;;;;;;12.93;3.30;;;;;;;15.94;76.27;102026.28;5022568;28;20072;-68
2022/07/08 03:36:57;;;;;;;15.88;2.10;;;;;;;15.82;76.77;102037.50;5027842;28;20069;-68
2022/07/08 03:39:24;;;;;;;6.53;1.92;;;;;;;15.73;77.05;102038.88;5027638;28;20629;-68
2022/07/08 03:41:50;;;;;;;15.20;3.25;;;;;;;15.57;78.24;102036.16;5027201;28;20096;-68
2022/07/08 03:44:16;;;;;;;12.80;2.60;;;;;;;15.68;77.31;102029.44;5027499;28;20132;-68
2022/07/08 03:46:42;;;;;;;12.98;2.13;;;;;;;15.55;77.57;102032.75;5027202;28;20126;-69
2022/07/08 03:49:09;;;;;;;11.43;2.65;;;;;;;15.55;76.86;102038.03;5027452;28;20067;-68
2022/07/08 03:51:35;;;;;;;12.88;2.45;;;;;;;15.57;76.51;102044.09;5031499;28;20091;-68
2022/07/08 03:54:01;;;;;;;9.15;1.90;;;;;;;15.64;76.85;102041.13;5027676;28;20204;-68
2022/07/08 03:56:29;;;;;;;12.80;3.33;;;;;;;15.58;76.74;102043.16;5026735;28;20107;-69
2022/07/08 03:58:55;;;;;;;13.70;2.60;;;;;;;15.73;76.32;102051.22;5028049;28;20346;-68
2022/07/08 04:01:22;;;;;;;14.30;2.47;;;;;;;15.75;75.74;102042.28;5027463;28;20421;-68
2022/07/08 04:03:48;;;;;;;17.95;3.78;;;;;;;15.71;76.50;102042.50;5028019;28;20045;-68
2022/07/08 04:06:14;;;;;;;16.90;2.25;;;;;;;15.79;75.95;102058.84;5027948;28;20100;-68
2022/07/08 04:08:42;;;;;;;10.07;2.72;;;;;;;15.59;76.50;102058.06;5027441;28;20073;-68
2022/07/08 04:11:08;;;;;;;18.00;2.55;;;;;;;15.67;76.01;102062.13;5027016;28;20045;-68
2022/07/08 04:13:37;;;;;;;12.52;3.22;;;;;;;15.57;75.89;102067.03;5028173;28;20049;-68
2022/07/08 04:16:05;;;;;;;10.57;2.40;;;;;;;15.68;75.93;102074.41;5026877;28;20413;-68
2022/07/08 04:18:32;;;;;;;20.48;2.65;;;;;;;15.78;75.35;102075.66;5027581;28;20046;-68
2022/07/08 04:20:58;;;;;;;12.85;2.22;;;;;;;15.98;74.08;102084.25;5027807;28;20079;-68
2022/07/08 04:23:25;;;;;;;12.75;3.17;;;;;;;15.97;74.89;102084.31;5027689;28;20053;-68
2022/07/08 04:25:51;;;;;;;11.30;2.92;;;;;;;15.93;74.68;102094.19;5029919;28;20081;-68
2022/07/08 04:28:17;;;;;;;12.55;2.55;;;;;;;15.77;74.95;102101.25;5027238;28;20041;-68
2022/07/08 04:30:45;;;;;;;13.50;2.97;;;;;;;15.83;75.41;102100.91;5025960;28;20501;-68
2022/07/08 04:33:11;;;;;;;14.07;2.90;;;;;;;16.06;74.74;102111.16;5027093;28;20108;-68
2022/07/08 04:35:38;;;;;;;10.95;2.60;;;;;;;16.43;73.37;102109.19;5019214;28;20057;-68
2022/07/08 04:38:04;;;;;;;15.90;3.10;;;;;;;16.57;73.17;102106.66;5025696;28;20045;-68
2022/07/08 04:40:31;;;;;;;10.95;2.58;;;;;;;16.58;74.01;102115.47;5027412;28;20049;-68
2022/07/08 04:42:57;;;;;;;15.40;2.50;;;;;;;16.43;72.63;102122.41;5027474;28;20115;-68
2022/07/08 04:45:24;;;;;;;9.77;1.80;;;;;;;16.35;73.15;102125.47;5025732;28;20049;-68
2022/07/08 04:47:52;;;;;;;14.68;2.50;;;;;;;16.46;72.57;102122.25;5027798;28;20047;-68
2022/07/08 04:50:19;;;;;;;17.80;2.75;;;;;;;16.65;72.95;102127.44;5026558;28;20514;-68
2022/07/08 04:52:47;;;;;;;8.25;2.05;;;;;;;16.76;72.33;102119.75;5025487;28;20065;-68
2022/07/08 04:57:55;;;;;;;9.15;1.80;;;;;;;16.64;71.99;102136.31;5025614;28;20060;-68
2022/07/08 05:00:21;;;;;;;9.10;2.13;;;;;;;16.61;71.54;102136.47;5027107;28;20049;-68
2022/07/08 05:02:48;;;;;;;7.15;2.45;;;;;;;16.46;72.50;102133.69;5018638;28;20050;-68
2022/07/08 05:05:15;;;;;;;16.33;2.45;;;;;;;16.73;71.53;102138.47;5026527;28;20064;-68
2022/07/08 05:07:42;;;;;;;12.45;2.33;;;;;;;16.72;71.34;102142.03;5026532;28;20041;-68
2022/07/08 05:10:08;;;;;;;19.45;2.58;;;;;;;16.74;71.74;102141.00;5024965;28;20038;-68
2022/07/08 05:12:35;;;;;;;11.45;2.20;;;;;;;16.91;71.14;102150.69;5027466;28;20060;-68
2022/07/08 05:15:01;;;;;;;15.48;2.33;;;;;;;16.86;71.29;102140.34;5025705;28;20678;-68
2022/07/08 05:17:27;;;;;;;9.65;1.90;;;;;;;16.78;70.79;102153.16;5025881;28;20107;-68
2022/07/08 05:19:54;;;;;;;11.30;2.15;;;;;;;16.80;70.40;102147.78;5025235;28;20123;-67
2022/07/08 05:22:21;;;;;;;9.80;2.10;;;;;;;16.49;71.84;102144.13;5023272;28;20122;-67
2022/07/08 05:24:47;;;;;;;9.10;2.03;;;;;;;16.52;71.66;102143.09;5026490;28;20461;-67
2022/07/08 05:27:14;;;;;;;9.80;2.42;;;;;;;16.58;71.26;102142.81;5025993;28;20091;-67
2022/07/08 05:29:40;;;;;;;12.07;2.10;;;;;;;16.81;70.71;102152.13;5024834;28;20097;-68
2022/07/08 05:32:07;;;;;;;17.00;3.00;;;;;;;17.00;69.45;102139.56;5025853;28;20107;-68
2022/07/08 05:34:33;;;;;;;16.50;2.70;;;;;;;17.18;69.71;102153.59;5026038;28;20103;-66
2022/07/08 05:37:00;;;;;;;11.10;2.00;;;;;;;17.37;68.23;102144.47;5025873;28;20045;-66
2022/07/08 05:39:27;;;;;;;13.95;2.38;;;;;;;17.51;66.58;102154.28;5024636;28;20050;-66
2022/07/08 05:41:54;;;;;;;15.82;2.35;;;;;;;17.01;67.36;102150.06;5018723;28;20073;-66
2022/07/08 05:44:20;;;;;;;9.80;2.28;;;;;;;16.90;68.74;102164.84;5014784;28;20041;-66
2022/07/08 05:46:46;;;;;;;8.43;1.65;;;;;;;16.93;66.84;102159.38;5027582;28;20087;-66
2022/07/08 05:49:13;;;;;;;10.35;2.50;;;;;;;16.73;66.74;102163.16;5028327;28;20652;-66
2022/07/08 05:51:39;;;;;;;11.70;2.08;;;;;;;16.91;67.08;102161.28;5024849;28;20049;-66
2022/07/08 05:54:06;;;;;;;7.28;2.33;;;;;;;17.34;66.85;102165.00;5025483;28;20045;-67
2022/07/08 05:56:33;;;;;;;14.88;2.05;;;;;;;17.42;67.14;102168.94;5026841;28;20045;-68
2022/07/08 05:59:00;;;;;;;11.45;1.80;;;;;;;17.47;66.05;102171.31;5025022;28;20111;-67
2022/07/08 06:01:26;;;;;;;15.52;3.13;;;;;;;17.20;66.09;102168.44;5025414;28;20045;-68
2022/07/08 06:03:53;;;;;;;10.20;1.80;;;;;;;17.30;66.60;102180.22;5026113;28;20050;-68
2022/07/08 06:06:19;;;;;;;4.85;1.45;;;;;;;17.22;66.33;102177.16;5017463;28;20077;-68
2022/07/08 06:08:45;;;;;;;7.32;1.95;;;;;;;17.24;65.79;102182.38;5025758;28;20107;-68
2022/07/08 06:11:12;;;;;;;11.70;2.03;;;;;;;17.08;65.95;102178.88;5025590;28;20045;-67
2022/07/08 06:13:39;;;;;;;8.40;1.67;;;;;;;17.13;66.42;102183.00;5021483;28;20119;-68
2022/07/08 06:16:07;;;;;;;10.85;2.40;;;;;;;17.11;66.14;102195.47;5014341;28;20081;-67
2022/07/08 06:18:35;;;;;;;8.30;1.65;;;;;;;17.41;65.95;102196.38;5026835;28;20049;-68
2022/07/08 06:21:01;;;;;;;13.40;1.83;;;;;;;17.48;65.12;102202.19;5027109;28;20046;-68
2022/07/08 06:23:28;;;;;;;10.75;2.33;;;;;;;17.41;65.00;102201.69;5025046;28;20069;-68
2022/07/08 06:25:54;;;;;;;10.13;2.50;;;;;;;17.43;65.46;102197.16;5026701;28;20464;-68
2022/07/08 06:28:20;;;;;;;6.88;1.40;;;;;;;17.63;65.17;102200.47;5025905;28;20041;-68
2022/07/08 06:30:48;;;;;;;9.68;1.70;;;;;;;17.43;63.74;102191.88;5025989;28;20068;-68
2022/07/08 06:33:14;;;;;;;7.53;1.50;;;;;;;17.26;66.28;102194.59;5026691;28;20045;-67
2022/07/08 06:35:41;;;;;;;12.13;3.17;;;;;;;17.34;64.44;102207.41;5017069;28;20584;-68
2022/07/08 06:38:07;;;;;;;8.32;1.80;;;;;;;17.49;63.76;102218.03;5025790;28;20572;-68
2022/07/08 06:40:33;;;;;;;6.60;1.58;;;;;;;17.42;63.86;102211.34;5023862;28;20608;-68
2022/07/08 06:43:00;;;;;;;8.65;1.70;;;;;;;17.73;63.41;102221.09;5011479;28;20557;-68
2022/07/08 06:45:27;;;;;;;17.33;2.15;;;;;;;17.85;62.72;102224.81;5022892;28;20073;-68
2022/07/08 06:47:55;;;;;;;7.30;2.67;;;;;;;18.07;63.44;102232.38;5025948;28;20057;-68
2022/07/08 06:50:21;;;;;;;10.48;2.75;;;;;;;18.30;62.89;102230.06;5025068;28;20402;-68
2022/07/08 06:52:48;;;;;;;8.07;2.28;;;;;;;18.22;62.34;102228.78;5026530;28;20068;-68
2022/07/08 06:55:14;;;;;;;8.20;1.52;;;;;;;18.13;62.09;102230.22;5025819;28;20091;-71
2022/07/08 06:57:40;;;;;;;5.03;1.40;;;;;;;18.10;60.88;102235.72;5025419;28;20045;-71
2022/07/08 07:00:08;;;;;;;6.07;1.38;;;;;;;18.23;60.91;102225.19;5025818;28;20104;-71
2022/07/08 07:02:35;;;;;;;8.13;2.63;;;;;;;18.59;60.16;102233.59;5023729;28;20095;-70
2022/07/08 07:05:03;;;;;;;8.57;1.75;;;;;;;18.76;58.75;102221.94;5023317;28;20123;-70
2022/07/08 07:07:29;;;;;;;8.75;2.15;;;;;;;18.37;59.52;102218.09;5011108;28;20069;-71
2022/07/08 07:09:56;;;;;;;10.10;1.90;;;;;;;18.37;60.38;102211.94;5009328;28;20069;-71
2022/07/08 07:12:22;;;;;;;11.63;2.00;;;;;;;18.53;61.20;102225.16;5025407;28;20068;-71
2022/07/08 07:14:49;;;;;;;15.35;2.58;;;;;;;18.87;59.02;102212.38;5021451;28;20069;-71
2022/07/08 07:17:17;;;;;;;10.68;2.72;;;;;;;18.63;57.98;102208.56;5029161;28;20049;-71
2022/07/08 07:19:44;;;;;;;12.10;2.10;;;;;;;19.31;57.99;102200.66;5028123;28;20045;-71
2022/07/08 07:22:11;;;;;;;9.07;1.95;;;;;;;19.36;58.01;102214.53;5022162;28;20053;-71
2022/07/08 07:24:38;;;;;;;7.18;1.92;;;;;;;19.30;57.36;102207.78;5025028;28;20599;-71
2022/07/08 07:27:05;;;;;;;6.20;1.23;;;;;;;19.01;57.66;102215.94;5026468;28;20050;-71
2022/07/08 07:29:31;;;;;;;7.00;1.30;;;;;;;18.57;58.41;102222.25;5028884;28;20049;-71
2022/07/08 07:31:57;;;;;;;10.05;2.00;;;;;;;18.49;58.88;102221.81;5029176;28;20068;-71
2022/07/08 07:34:24;;;;;;;12.95;2.17;;;;;;;18.59;58.06;102214.19;5020322;28;20104;-71
2022/07/08 07:36:50;;;;;;;6.68;1.50;;;;;;;18.65;57.88;102225.28;5020590;28;20046;-72
2022/07/08 07:39:18;;;;;;;7.03;1.40;;;;;;;18.61;57.95;102226.41;5027527;28;20091;-71
2022/07/08 07:41:44;;;;;;;9.20;1.30;;;;;;;18.71;58.97;102219.56;5024546;28;20135;-71
2022/07/08 07:44:11;;;;;;;11.00;2.42;;;;;;;18.71;59.27;102221.38;5017434;28;20096;-71
2022/07/08 07:46:37;;;;;;;12.88;1.30;;;;;;;18.70;58.35;102232.97;5027015;28;20064;-71
2022/07/08 07:49:03;;;;;;;7.35;1.60;;;;;;;18.90;57.88;102232.56;5030515;28;20049;-72
2022/07/08 07:51:30;;;;;;;7.75;1.92;;;;;;;19.12;57.95;102240.88;5029290;28;20057;-71
2022/07/08 07:53:56;;;;;;;6.43;1.67;;;;;;;19.36;57.30;102225.19;5035934;28;20053;-72
2022/07/08 07:56:24;;;;;;;6.03;1.52;;;;;;;19.51;56.39;102226.00;5026871;28;20449;-72
2022/07/08 07:58:50;;;;;;;8.57;1.40;;;;;;;19.81;55.08;102221.28;5026990;28;20054;-71
2022/07/08 08:01:17;;;;;;;4.95;1.45;;;;;;;19.70;54.58;102221.16;5028830;28;20061;-72
2022/07/08 08:03:43;;;;;;;12.45;2.22;;;;;;;19.69;54.77;102228.31;5028855;28;20107;-71
2022/07/08 08:06:10;;;;;;;3.47;1.20;;;;;;;19.48;53.89;102228.84;5025449;28;20045;-71
2022/07/08 08:08:36;;;;;;;3.78;1.42;;;;;;;19.98;54.66;102226.34;5027835;28;20045;-71
2022/07/08 08:11:03;;;;;;;8.15;1.92;;;;;;;19.74;54.71;102233.31;5028179;28;20544;-72
2022/07/08 08:13:31;;;;;;;9.48;1.40;;;;;;;19.80;53.72;102235.59;5031663;28;20046;-72
2022/07/08 08:15:58;;;;;;;6.32;1.48;;;;;;;20.23;53.97;102233.53;5027458;28;20050;-72
2022/07/08 08:18:24;;;;;;;9.27;1.83;;;;;;;19.85;53.50;102241.44;5027262;28;20053;-72
2022/07/08 08:20:51;;;;;;;9.45;1.73;;;;;;;19.79;53.02;102240.06;5025899;28;20441;-72
2022/07/08 08:23:17;;;;;;;5.60;1.40;;;;;;;19.55;54.60;102249.63;5027335;28;20460;-72
2022/07/08 08:25:43;;;;;;;7.88;1.70;;;;;;;19.52;53.18;102233.88;5028495;28;20095;-72
2022/07/08 08:28:10;;;;;;;8.48;1.80;;;;;;;19.50;55.33;102238.47;5027633;28;20041;-72
2022/07/08 08:30:38;;;;;;;8.13;2.60;;;;;;;20.45;56.91;102232.94;5027237;28;20073;-72
2022/07/08 08:33:04;;;;;;;7.75;1.77;;;;;;;21.04;53.30;102232.22;5008689;28;20080;-72
2022/07/08 08:35:30;;;;;;;8.05;1.40;;;;;;;21.33;51.58;102247.00;5026685;28;20099;-72
2022/07/08 08:37:57;;;;;;;6.45;1.83;;;;;;;21.09;50.19;102235.41;5026875;28;20111;-72
2022/07/08 08:40:24;;;;;;;10.18;1.77;;;;;;;20.18;52.03;102241.81;5027370;28;20045;-72
2022/07/08 08:42:51;;;;;;;5.50;1.38;;;;;;;20.38;50.87;102245.81;5014279;28;20046;-72
2022/07/08 08:45:17;;;;;;;7.78;1.60;;;;;;;20.28;50.44;102247.44;5025644;28;20111;-72
2022/07/08 08:47:48;;;;;;;6.70;1.83;;;;;;;21.47;53.80;102232.63;5027796;28;20045;-72
2022/07/08 08:53:01;;;;;;;9.43;1.70;;;;;;;21.58;48.50;102230.00;5027607;28;20049;-73
2022/07/08 08:55:29;;;;;;;5.38;1.60;;;;;;;21.51;48.31;102225.25;5026820;28;20042;-72
2022/07/08 08:57:57;;;;;;;6.07;1.40;;;;;;;21.53;47.23;102234.84;5026973;28;20067;-72
2022/07/08 09:00:25;;;;;;;6.80;1.98;;;;;;;21.16;48.95;102243.84;5024112;28;20045;-72
2022/07/08 09:02:53;;;;;;;5.53;1.40;;;;;;;21.86;49.27;102234.16;5026179;28;20055;-72
2022/07/08 09:05:20;;;;;;;5.80;1.83;;;;;;;22.09;49.01;102230.63;5019585;28;20104;-72
2022/07/08 09:07:46;;;;;;;7.20;1.45;;;;;;;21.84;47.12;102231.59;5008435;28;20085;-72
2022/07/08 09:10:14;;;;;;;7.05;1.63;;;;;;;22.08;46.30;102236.06;5022456;28;20073;-72
2022/07/08 09:12:59;;;;;;;6.43;1.52;;;;;;;21.82;48.02;102240.69;5024831;28;20049;-73
2022/07/08 09:15:29;;;;;;;5.10;2.22;;;;;;;22.39;48.35;102240.78;5023676;28;20811;-73
2022/07/08 09:17:57;;;;;;;5.80;1.45;;;;;;;22.96;45.19;102251.38;5021090;28;20092;-73
2022/07/08 09:20:24;;;;;;;6.28;1.80;;;;;;;22.60;46.04;102254.28;5026125;28;20099;-73
2022/07/08 09:22:50;;;;;;;7.03;1.63;;;;;;;23.48;47.08;102247.19;5026901;28;20895;-73
2022/07/08 09:25:17;;;;;;;7.43;1.80;;;;;;;24.31;45.66;102247.34;5026686;28;20045;-70
2022/07/08 09:27:43;;;;;;;4.85;1.42;;;;;;;23.98;42.58;102237.63;5027439;28;20445;-70
2022/07/08 09:30:10;;;;;;;7.40;2.03;;;;;;;23.77;42.50;102246.47;5024671;28;20091;-71
2022/07/08 09:32:36;;;;;;;7.13;1.60;;;;;;;23.43;43.08;102260.13;5023232;28;20073;-70
2022/07/08 09:35:12;;;;;;;6.78;1.90;;;;;;;24.27;46.19;102256.63;5022240;28;20045;-70
2022/07/08 09:37:39;;;;;;;6.65;1.80;;;;;;;24.33;42.14;102245.34;5024346;28;20107;-70
2022/07/08 09:40:17;;;;;;;6.57;1.35;;;;;;;24.35;42.70;102248.78;5009246;28;20052;-71
2022/07/08 09:42:44;;;;;;;7.40;1.70;;;;;;;24.65;41.52;102249.63;5016294;28;20046;-71
2022/07/08 09:45:10;;;;;;;6.78;1.70;;;;;;;24.49;40.66;102254.63;5023332;28;20103;-71
2022/07/08 09:47:36;;;;;;;7.40;1.30;;;;;;;24.18;42.33;102252.88;5026546;28;20501;-71
2022/07/08 09:50:08;;;;;;;4.03;1.65;;;;;;;24.47;44.32;102261.09;5025847;28;20045;-71
2022/07/08 09:52:35;;;;;;;;;;;;;;;25.11;42.71;102251.81;5026086;28;20057;-71
2022/07/08 09:55:02;;;;;;;8.13;1.63;;;;;;;25.83;40.31;102248.81;5026913;28;19972;-71
2022/07/08 09:57:30;;;;;;;6.88;1.73;;;;;;;25.89;39.86;102247.44;5028153;28;20053;-72
2022/07/08 09:59:57;;;;;;;7.55;1.65;;;;;;;26.15;38.69;102238.63;5025753;28;20053;-71
2022/07/08 10:02:24;;;;;;;6.22;1.60;;;;;;;24.56;39.28;102241.53;5026832;28;20045;-71
2022/07/08 10:04:52;;;;;;;6.78;1.50;;;;;;;24.46;40.88;102252.22;5021917;28;20053;-72
2022/07/08 10:07:20;;;;;;;13.38;1.73;;;;;;;25.00;41.50;102254.63;5021061;28;20046;-71
2022/07/08 10:09:46;;;;;;;5.10;1.90;;;;;;;25.44;39.23;102245.25;5023475;28;20045;-71
2022/07/08 10:12:15;;;;;;;7.30;1.70;;;;;;;25.20;40.95;102245.63;5026846;28;20046;-71
2022/07/08 10:14:43;;;;;;;5.97;1.40;;;;;;;24.83;39.55;102251.69;5025472;28;20049;-70
2022/07/08 10:17:17;;;;;;;6.05;1.75;;;;;;;25.03;38.25;102251.66;5025770;28;20096;-71
2022/07/08 10:19:46;;;;;;;4.10;1.60;;;;;;;24.48;43.24;102249.41;5022940;28;20045;-71
2022/07/08 10:22:15;;;;;;;6.07;1.70;;;;;;;24.75;42.38;102236.28;5033891;28;20033;-71
2022/07/08 10:24:43;;;;;;;9.85;2.22;;;;;;;25.04;41.69;102239.94;5045945;28;20340;-70
2022/07/08 10:27:11;;;;;;;10.48;2.00;;;;;;;24.98;40.25;102243.16;5032092;28;20061;-71
2022/07/08 10:29:39;;;;;;;6.88;1.70;;;;;;;25.28;46.37;102238.72;5024871;28;20052;-72
2022/07/08 10:32:22;;;;;;;7.82;1.80;;;;;;;25.39;39.05;102235.91;5024835;28;20046;-72
2022/07/08 10:35:07;;;;;;;7.20;1.77;;;;;;;24.24;40.18;102234.44;5025618;28;20053;-73
2022/07/08 10:37:46;;;;;;;3.70;1.67;;;;;;;24.43;41.99;102230.16;5026991;28;20050;-72
2022/07/08 10:40:14;;;;;;;6.55;1.65;;;;;;;24.83;41.68;102228.41;5026242;28;20440;-72
2022/07/08 10:42:43;;;;;;;4.60;1.40;;;;;;;25.02;40.33;102228.47;5028299;28;20068;-72
2022/07/08 10:45:16;;;;;;;8.90;1.63;;;;;;;25.48;40.80;102217.13;5029907;28;20123;-73
2022/07/08 10:47:42;;;;;;;7.30;1.70;;;;;;;26.03;40.21;102225.47;5030265;28;20091;-72
2022/07/08 10:50:09;;;;;;;5.03;1.70;;;;;;;25.61;40.81;102231.16;5025757;28;20038;-72
2022/07/08 10:52:40;;;;;;;6.07;1.65;;;;;;;25.29;37.50;102225.16;5029106;28;22594;-72
2022/07/08 10:55:15;;;;;;;7.72;1.70;;;;;;;25.49;39.68;102234.09;5028974;28;20049;-72
2022/07/08 10:57:55;;;;;;;10.77;1.92;;;;;;;25.87;38.05;102234.13;5027939;28;20045;-72
2022/07/08 11:00:22;;;;;;;7.28;1.70;;;;;;;26.35;40.62;102234.06;5027855;28;20045;-72
2022/07/08 11:02:49;;;;;;;5.30;1.38;;;;;;;26.66;37.42;102233.84;5027129;28;20429;-72
2022/07/08 11:05:36;;;;;;;6.05;1.50;;;;;;;26.04;38.60;102233.41;5018882;28;20049;-71
2022/07/08 11:08:28;;;;;;;5.80;1.63;;;;;;;25.51;39.59;102226.72;5007912;28;20049;-71
2022/07/08 11:10:56;;;;;;;;;;;;;;;25.29;40.27;102229.66;5022625;28;20413;-71
2022/07/08 11:13:24;;;;;;;5.38;2.10;;;;;;;25.46;41.27;102237.06;5026190;28;20381;-71
2022/07/08 11:15:51;;;;;;;6.70;1.83;;;;;;;25.75;39.82;102231.75;5029340;28;20099;-72
2022/07/08 11:18:22;;;;;;;4.68;1.48;;;;;;;25.49;38.55;102226.03;5028420;28;20049;-71
2022/07/08 11:20:48;;;;;;;7.65;1.83;;;;;;;25.66;40.36;102236.09;5027390;28;20056;-73
2022/07/08 11:23:16;;;;;;;6.30;1.77;;;;;;;25.66;41.91;102226.22;5030188;28;20107;-72
2022/07/08 11:25:43;;;;;;;7.22;1.90;;;;;;;26.21;40.02;102229.16;5029477;28;20057;-72
2022/07/08 11:28:20;;;;;;;7.28;2.03;;;;;;;26.36;38.53;102230.41;5026878;28;20041;-72
2022/07/08 11:30:46;;;;;;;5.13;1.60;;;;;;;25.86;39.54;102226.22;5027900;28;20058;-72